sensor_id;sensor_type;location;lat;lon;timestamp;temperature;humidity
16243;DHT22;11719;51.052;6.982;2023-06-24T00:02:13;22.30;99.90
16243;DHT22;11719;51.052;6.982;2023-06-24T00:04:39;22.20;99.90
16243;DHT22;11719;51.052;6.982;2023-06-24T00:07:05;22.30;99.90
16243;DHT22;11719;51.052;6.982;2023-06-24T00:09:32;22.30;99.90
16243;DHT22;11719;51.052;6.982;2023-06-24T00:11:59;22.40;99.90
16243;DHT22;11719;51.052;6.982;2023-06-24T00:14:26;22.40;99.90
16243;DHT22;11719;51.052;6.982;2023-06-24T00:16:53;22.40;99.90
16243;DHT22;11719;51.052;6.982;2023-06-24T00:19:20;22.50;99.90
16243;DHT22;11719;51.052;6.982;2023-06-24T00:21:48;22.50;99.90
16243;DHT22;11719;51.052;6.982;2023-06-24T00:24:20;22.50;99.90
16243;DHT22;11719;51.052;6.982;2023-06-24T00:26:52;22.60;99.90
16243;DHT22;11719;51.052;6.982;2023-06-24T00:29:18;22.60;99.90
16243;DHT22;11719;51.052;6.982;2023-06-24T00:34:20;22.60;99.90
16243;DHT22;11719;51.052;6.982;2023-06-24T00:36:46;22.60;99.90
16243;DHT22;11719;51.052;6.982;2023-06-24T00:39:15;22.60;99.90
16243;DHT22;11719;51.052;6.982;2023-06-24T00:41:41;22.60;99.90
16243;DHT22;11719;51.052;6.982;2023-06-24T00:44:08;22.60;99.90
16243;DHT22;11719;51.052;6.982;2023-06-24T00:46:34;22.70;99.90
16243;DHT22;11719;51.052;6.982;2023-06-24T00:49:00;22.70;99.90
16243;DHT22;11719;51.052;6.982;2023-06-24T00:51:28;22.60;99.90
16243;DHT22;11719;51.052;6.982;2023-06-24T00:53:59;22.70;99.90
16243;DHT22;11719;51.052;6.982;2023-06-24T00:56:30;22.70;99.90
16243;DHT22;11719;51.052;6.982;2023-06-24T00:59:03;22.60;99.90
16243;DHT22;11719;51.052;6.982;2023-06-24T01:01:33;22.60;99.90
16243;DHT22;11719;51.052;6.982;2023-06-24T01:04:01;22.50;99.90
16243;DHT22;11719;51.052;6.982;2023-06-24T01:06:28;22.50;99.90
16243;DHT22;11719;51.052;6.982;2023-06-24T01:08:59;22.50;99.90
16243;DHT22;11719;51.052;6.982;2023-06-24T01:11:26;22.50;99.90
16243;DHT22;11719;51.052;6.982;2023-06-24T01:13:52;22.50;99.90
16243;DHT22;11719;51.052;6.982;2023-06-24T01:19:44;22.50;99.90
16243;DHT22;11719;51.052;6.982;2023-06-24T01:23:06;22.50;99.90
16243;DHT22;11719;51.052;6.982;2023-06-24T01:39:49;22.50;99.90
16243;DHT22;11719;51.052;6.982;2023-06-24T01:42:19;22.50;99.90
16243;DHT22;11719;51.052;6.982;2023-06-24T01:44:48;22.50;99.90
16243;DHT22;11719;51.052;6.982;2023-06-24T01:47:21;22.50;99.90
16243;DHT22;11719;51.052;6.982;2023-06-24T01:49:49;22.50;99.90
16243;DHT22;11719;51.052;6.982;2023-06-24T01:52:18;22.50;99.90
16243;DHT22;11719;51.052;6.982;2023-06-24T01:54:48;22.50;99.90
16243;DHT22;11719;51.052;6.982;2023-06-24T01:57:15;22.50;99.90
16243;DHT22;11719;51.052;6.982;2023-06-24T01:59:44;22.50;99.90
16243;DHT22;11719;51.052;6.982;2023-06-24T02:02:12;22.50;99.90
16243;DHT22;11719;51.052;6.982;2023-06-24T02:04:38;22.50;99.90
16243;DHT22;11719;51.052;6.982;2023-06-24T02:07:06;22.50;99.90
16243;DHT22;11719;51.052;6.982;2023-06-24T02:09:34;22.50;99.90
16243;DHT22;11719;51.052;6.982;2023-06-24T02:12:02;22.50;99.90
16243;DHT22;11719;51.052;6.982;2023-06-24T02:14:30;22.50;99.90
16243;DHT22;11719;51.052;6.982;2023-06-24T02:16:57;22.50;99.90
16243;DHT22;11719;51.052;6.982;2023-06-24T02:19:29;22.50;99.90
16243;DHT22;11719;51.052;6.982;2023-06-24T02:21:57;22.50;99.90
16243;DHT22;11719;51.052;6.982;2023-06-24T02:24:26;22.50;99.90
16243;DHT22;11719;51.052;6.982;2023-06-24T02:26:53;22.50;99.90
16243;DHT22;11719;51.052;6.982;2023-06-24T02:29:21;22.50;99.90
16243;DHT22;11719;51.052;6.982;2023-06-24T02:31:47;22.50;99.90
16243;DHT22;11719;51.052;6.982;2023-06-24T02:34:14;22.50;99.90
16243;DHT22;11719;51.052;6.982;2023-06-24T02:36:40;22.60;99.90
16243;DHT22;11719;51.052;6.982;2023-06-24T02:39:06;22.60;99.90
16243;DHT22;11719;51.052;6.982;2023-06-24T02:41:32;22.60;99.90
16243;DHT22;11719;51.052;6.982;2023-06-24T02:43:58;22.60;99.90
16243;DHT22;11719;51.052;6.982;2023-06-24T02:46:25;22.60;99.90
16243;DHT22;11719;51.052;6.982;2023-06-24T02:48:51;22.50;99.90
16243;DHT22;11719;51.052;6.982;2023-06-24T02:51:18;22.50;99.90
16243;DHT22;11719;51.052;6.982;2023-06-24T02:53:45;22.60;99.90
16243;DHT22;11719;51.052;6.982;2023-06-24T02:56:13;22.60;99.90
16243;DHT22;11719;51.052;6.982;2023-06-24T02:58:39;22.50;99.90
16243;DHT22;11719;51.052;6.982;2023-06-24T03:01:06;22.50;99.90
16243;DHT22;11719;51.052;6.982;2023-06-24T03:03:35;22.60;99.90
16243;DHT22;11719;51.052;6.982;2023-06-24T03:06:01;22.60;99.90
16243;DHT22;11719;51.052;6.982;2023-06-24T03:08:28;22.60;99.90
16243;DHT22;11719;51.052;6.982;2023-06-24T03:10:55;22.60;99.90
16243;DHT22;11719;51.052;6.982;2023-06-24T03:13:21;22.50;99.90
16243;DHT22;11719;51.052;6.982;2023-06-24T03:15:48;22.50;99.90
16243;DHT22;11719;51.052;6.982;2023-06-24T03:18:16;22.50;99.90
16243;DHT22;11719;51.052;6.982;2023-06-24T03:20:42;22.40;99.90
16243;DHT22;11719;51.052;6.982;2023-06-24T03:23:08;22.20;99.90
16243;DHT22;11719;51.052;6.982;2023-06-24T03:25:35;22.20;99.90
16243;DHT22;11719;51.052;6.982;2023-06-24T03:28:01;22.20;99.90
16243;DHT22;11719;51.052;6.982;2023-06-24T03:30:29;22.20;99.90
16243;DHT22;11719;51.052;6.982;2023-06-24T03:32:55;22.30;99.90
16243;DHT22;11719;51.052;6.982;2023-06-24T03:35:23;22.30;99.90
16243;DHT22;11719;51.052;6.982;2023-06-24T03:37:49;22.30;99.90
16243;DHT22;11719;51.052;6.982;2023-06-24T03:40:17;22.30;99.90
16243;DHT22;11719;51.052;6.982;2023-06-24T03:42:43;22.30;99.90
16243;DHT22;11719;51.052;6.982;2023-06-24T03:45:09;22.30;99.90
16243;DHT22;11719;51.052;6.982;2023-06-24T03:47:35;22.30;99.90
16243;DHT22;11719;51.052;6.982;2023-06-24T03:50:00;22.30;99.90
16243;DHT22;11719;51.052;6.982;2023-06-24T03:52:26;22.30;99.90
16243;DHT22;11719;51.052;6.982;2023-06-24T03:54:52;22.30;99.90
16243;DHT22;11719;51.052;6.982;2023-06-24T03:57:19;22.30;99.90
16243;DHT22;11719;51.052;6.982;2023-06-24T03:59:44;22.30;99.90
16243;DHT22;11719;51.052;6.982;2023-06-24T04:02:10;22.20;99.90
16243;DHT22;11719;51.052;6.982;2023-06-24T04:04:36;22.10;99.90
16243;DHT22;11719;51.052;6.982;2023-06-24T04:07:02;21.90;99.90
16243;DHT22;11719;51.052;6.982;2023-06-24T04:09:29;21.80;99.90
16243;DHT22;11719;51.052;6.982;2023-06-24T04:11:55;21.80;99.90
16243;DHT22;11719;51.052;6.982;2023-06-24T04:14:21;21.70;99.90
16243;DHT22;11719;51.052;6.982;2023-06-24T04:16:47;21.70;99.90
16243;DHT22;11719;51.052;6.982;2023-06-24T04:19:12;21.60;99.90
16243;DHT22;11719;51.052;6.982;2023-06-24T04:21:38;21.60;99.90
16243;DHT22;11719;51.052;6.982;2023-06-24T04:24:04;21.60;99.90
16243;DHT22;11719;51.052;6.982;2023-06-24T04:26:30;21.70;99.90
16243;DHT22;11719;51.052;6.982;2023-06-24T04:28:56;21.70;99.90
16243;DHT22;11719;51.052;6.982;2023-06-24T04:31:22;21.80;99.90
16243;DHT22;11719;51.052;6.982;2023-06-24T04:33:47;21.90;99.90
16243;DHT22;11719;51.052;6.982;2023-06-24T04:36:13;21.90;99.90
16243;DHT22;11719;51.052;6.982;2023-06-24T04:38:39;21.90;99.90
16243;DHT22;11719;51.052;6.982;2023-06-24T04:41:05;22.00;99.90
16243;DHT22;11719;51.052;6.982;2023-06-24T04:43:31;22.10;99.90
16243;DHT22;11719;51.052;6.982;2023-06-24T04:45:56;22.10;99.90
16243;DHT22;11719;51.052;6.982;2023-06-24T04:48:26;22.20;99.90
16243;DHT22;11719;51.052;6.982;2023-06-24T04:50:52;22.30;99.90
16243;DHT22;11719;51.052;6.982;2023-06-24T04:53:20;22.30;99.90
16243;DHT22;11719;51.052;6.982;2023-06-24T04:55:47;22.30;99.90
16243;DHT22;11719;51.052;6.982;2023-06-24T04:58:12;22.30;99.90
16243;DHT22;11719;51.052;6.982;2023-06-24T05:00:38;22.40;99.90
16243;DHT22;11719;51.052;6.982;2023-06-24T05:03:04;22.40;99.90
16243;DHT22;11719;51.052;6.982;2023-06-24T05:05:30;22.40;99.90
16243;DHT22;11719;51.052;6.982;2023-06-24T05:07:56;22.40;99.90
16243;DHT22;11719;51.052;6.982;2023-06-24T05:10:22;22.40;99.90
16243;DHT22;11719;51.052;6.982;2023-06-24T05:12:47;22.50;99.90
16243;DHT22;11719;51.052;6.982;2023-06-24T05:15:13;22.40;99.90
16243;DHT22;11719;51.052;6.982;2023-06-24T05:17:40;22.40;99.90
16243;DHT22;11719;51.052;6.982;2023-06-24T05:20:06;22.40;99.90
16243;DHT22;11719;51.052;6.982;2023-06-24T05:22:32;22.40;99.90
16243;DHT22;11719;51.052;6.982;2023-06-24T05:24:58;22.40;99.90
16243;DHT22;11719;51.052;6.982;2023-06-24T05:27:23;22.40;99.90
16243;DHT22;11719;51.052;6.982;2023-06-24T05:29:49;22.40;99.90
16243;DHT22;11719;51.052;6.982;2023-06-24T05:32:15;22.40;99.90
16243;DHT22;11719;51.052;6.982;2023-06-24T05:34:43;22.40;99.90
16243;DHT22;11719;51.052;6.982;2023-06-24T05:37:09;22.50;99.90
16243;DHT22;11719;51.052;6.982;2023-06-24T05:39:34;22.40;99.90
16243;DHT22;11719;51.052;6.982;2023-06-24T05:42:00;22.40;99.90
16243;DHT22;11719;51.052;6.982;2023-06-24T05:44:26;22.40;99.90
16243;DHT22;11719;51.052;6.982;2023-06-24T05:46:52;22.40;99.90
16243;DHT22;11719;51.052;6.982;2023-06-24T05:49:17;22.40;99.90
16243;DHT22;11719;51.052;6.982;2023-06-24T05:51:43;22.40;99.90
16243;DHT22;11719;51.052;6.982;2023-06-24T05:54:09;22.40;99.90
16243;DHT22;11719;51.052;6.982;2023-06-24T05:56:35;22.40;99.90
16243;DHT22;11719;51.052;6.982;2023-06-24T05:59:02;22.40;99.90
16243;DHT22;11719;51.052;6.982;2023-06-24T06:01:27;22.50;99.90
16243;DHT22;11719;51.052;6.982;2023-06-24T06:03:53;22.50;99.90
16243;DHT22;11719;51.052;6.982;2023-06-24T06:06:19;22.40;99.90
16243;DHT22;11719;51.052;6.982;2023-06-24T06:08:45;22.50;99.90
16243;DHT22;11719;51.052;6.982;2023-06-24T06:11:10;22.50;99.90
16243;DHT22;11719;51.052;6.982;2023-06-24T06:13:36;22.50;99.90
16243;DHT22;11719;51.052;6.982;2023-06-24T06:16:02;22.50;99.90
16243;DHT22;11719;51.052;6.982;2023-06-24T06:18:28;22.50;99.90
16243;DHT22;11719;51.052;6.982;2023-06-24T06:20:53;22.50;99.90
16243;DHT22;11719;51.052;6.982;2023-06-24T06:23:19;22.50;99.90
16243;DHT22;11719;51.052;6.982;2023-06-24T06:25:45;22.50;99.90
16243;DHT22;11719;51.052;6.982;2023-06-24T06:28:11;22.50;99.90
16243;DHT22;11719;51.052;6.982;2023-06-24T06:30:38;22.50;99.90
16243;DHT22;11719;51.052;6.982;2023-06-24T06:33:04;22.60;99.90
16243;DHT22;11719;51.052;6.982;2023-06-24T06:35:30;22.60;99.90
16243;DHT22;11719;51.052;6.982;2023-06-24T06:37:57;22.50;99.90
16243;DHT22;11719;51.052;6.982;2023-06-24T06:40:23;22.50;99.90
16243;DHT22;11719;51.052;6.982;2023-06-24T06:42:49;22.40;99.90
16243;DHT22;11719;51.052;6.982;2023-06-24T06:45:15;22.50;99.90
16243;DHT22;11719;51.052;6.982;2023-06-24T06:47:41;22.40;99.90
16243;DHT22;11719;51.052;6.982;2023-06-24T06:50:07;22.40;99.90
16243;DHT22;11719;51.052;6.982;2023-06-24T06:52:34;22.40;99.90
16243;DHT22;11719;51.052;6.982;2023-06-24T06:55:00;22.40;99.90
16243;DHT22;11719;51.052;6.982;2023-06-24T06:57:26;22.40;99.90
16243;DHT22;11719;51.052;6.982;2023-06-24T06:59:51;22.40;99.90
16243;DHT22;11719;51.052;6.982;2023-06-24T07:02:19;22.40;99.90
16243;DHT22;11719;51.052;6.982;2023-06-24T07:04:44;22.40;99.90
16243;DHT22;11719;51.052;6.982;2023-06-24T07:07:10;22.40;99.90
16243;DHT22;11719;51.052;6.982;2023-06-24T07:09:37;22.40;99.90
16243;DHT22;11719;51.052;6.982;2023-06-24T07:12:03;22.40;99.90
16243;DHT22;11719;51.052;6.982;2023-06-24T07:14:29;22.40;99.90
16243;DHT22;11719;51.052;6.982;2023-06-24T07:16:55;22.40;99.90
16243;DHT22;11719;51.052;6.982;2023-06-24T07:19:21;22.40;99.90
16243;DHT22;11719;51.052;6.982;2023-06-24T07:21:47;22.40;99.90
16243;DHT22;11719;51.052;6.982;2023-06-24T07:24:12;22.50;99.90
16243;DHT22;11719;51.052;6.982;2023-06-24T07:26:38;22.50;99.90
16243;DHT22;11719;51.052;6.982;2023-06-24T07:29:06;22.50;99.90
16243;DHT22;11719;51.052;6.982;2023-06-24T07:31:33;22.50;99.90
16243;DHT22;11719;51.052;6.982;2023-06-24T07:33:59;22.50;99.90
16243;DHT22;11719;51.052;6.982;2023-06-24T07:36:25;22.60;99.90
16243;DHT22;11719;51.052;6.982;2023-06-24T07:38:51;22.60;99.90
16243;DHT22;11719;51.052;6.982;2023-06-24T07:41:16;22.60;99.90
16243;DHT22;11719;51.052;6.982;2023-06-24T07:43:42;22.60;99.90
16243;DHT22;11719;51.052;6.982;2023-06-24T07:46:08;22.70;99.90
16243;DHT22;11719;51.052;6.982;2023-06-24T07:48:34;22.60;99.90
16243;DHT22;11719;51.052;6.982;2023-06-24T07:51:00;22.70;99.90
16243;DHT22;11719;51.052;6.982;2023-06-24T07:53:25;22.70;99.90
16243;DHT22;11719;51.052;6.982;2023-06-24T07:55:51;22.70;99.90
16243;DHT22;11719;51.052;6.982;2023-06-24T07:58:17;22.70;99.90
16243;DHT22;11719;51.052;6.982;2023-06-24T08:00:45;22.70;99.90
16243;DHT22;11719;51.052;6.982;2023-06-24T08:03:12;22.70;99.90
16243;DHT22;11719;51.052;6.982;2023-06-24T08:05:38;22.70;99.90
16243;DHT22;11719;51.052;6.982;2023-06-24T08:08:05;22.70;99.90
16243;DHT22;11719;51.052;6.982;2023-06-24T08:10:31;22.80;99.90
16243;DHT22;11719;51.052;6.982;2023-06-24T08:12:57;22.80;99.90
16243;DHT22;11719;51.052;6.982;2023-06-24T08:15:23;22.80;99.90
16243;DHT22;11719;51.052;6.982;2023-06-24T08:17:54;22.80;99.90
16243;DHT22;11719;51.052;6.982;2023-06-24T08:20:21;22.80;99.90
16243;DHT22;11719;51.052;6.982;2023-06-24T08:22:48;22.80;99.90
16243;DHT22;11719;51.052;6.982;2023-06-24T08:25:14;22.90;99.90
16243;DHT22;11719;51.052;6.982;2023-06-24T08:27:40;22.90;99.90
16243;DHT22;11719;51.052;6.982;2023-06-24T08:30:24;22.90;99.90
16243;DHT22;11719;51.052;6.982;2023-06-24T08:32:50;23.00;99.90
16243;DHT22;11719;51.052;6.982;2023-06-24T08:35:16;23.00;99.90
16243;DHT22;11719;51.052;6.982;2023-06-24T08:37:42;23.00;99.90
16243;DHT22;11719;51.052;6.982;2023-06-24T08:40:08;23.00;99.90
16243;DHT22;11719;51.052;6.982;2023-06-24T08:42:34;23.10;99.90
16243;DHT22;11719;51.052;6.982;2023-06-24T08:45:00;23.10;99.90
16243;DHT22;11719;51.052;6.982;2023-06-24T08:47:27;23.10;99.90
16243;DHT22;11719;51.052;6.982;2023-06-24T08:50:00;23.10;99.90
16243;DHT22;11719;51.052;6.982;2023-06-24T08:52:31;23.00;99.90
16243;DHT22;11719;51.052;6.982;2023-06-24T08:54:59;23.00;99.90
16243;DHT22;11719;51.052;6.982;2023-06-24T08:57:26;23.00;99.90
16243;DHT22;11719;51.052;6.982;2023-06-24T08:59:53;23.10;99.90
16243;DHT22;11719;51.052;6.982;2023-06-24T09:02:19;23.10;99.90
16243;DHT22;11719;51.052;6.982;2023-06-24T09:04:45;23.10;99.90
16243;DHT22;11719;51.052;6.982;2023-06-24T09:07:11;23.20;99.90
16243;DHT22;11719;51.052;6.982;2023-06-24T09:09:46;23.20;99.90
16243;DHT22;11719;51.052;6.982;2023-06-24T09:12:14;23.20;99.90
16243;DHT22;11719;51.052;6.982;2023-06-24T09:14:40;23.30;99.90
16243;DHT22;11719;51.052;6.982;2023-06-24T09:17:06;23.40;99.90
16243;DHT22;11719;51.052;6.982;2023-06-24T09:19:36;23.40;99.90
16243;DHT22;11719;51.052;6.982;2023-06-24T09:22:08;23.40;99.90
16243;DHT22;11719;51.052;6.982;2023-06-24T09:24:41;23.50;99.90
16243;DHT22;11719;51.052;6.982;2023-06-24T09:27:07;23.50;99.90
16243;DHT22;11719;51.052;6.982;2023-06-24T09:29:35;23.50;99.90
16243;DHT22;11719;51.052;6.982;2023-06-24T09:32:04;23.50;99.90
16243;DHT22;11719;51.052;6.982;2023-06-24T09:34:31;23.50;99.90
16243;DHT22;11719;51.052;6.982;2023-06-24T09:36:58;23.50;99.90
16243;DHT22;11719;51.052;6.982;2023-06-24T09:39:25;23.50;99.90
16243;DHT22;11719;51.052;6.982;2023-06-24T09:41:58;23.40;99.90
16243;DHT22;11719;51.052;6.982;2023-06-24T09:44:27;23.50;99.90
16243;DHT22;11719;51.052;6.982;2023-06-24T09:46:53;23.50;99.90
16243;DHT22;11719;51.052;6.982;2023-06-24T09:49:21;23.40;99.90
16243;DHT22;11719;51.052;6.982;2023-06-24T09:51:48;23.40;99.90
16243;DHT22;11719;51.052;6.982;2023-06-24T09:54:16;23.60;99.90
16243;DHT22;11719;51.052;6.982;2023-06-24T09:56:52;23.60;99.90
16243;DHT22;11719;51.052;6.982;2023-06-24T09:59:20;23.60;99.90
16243;DHT22;11719;51.052;6.982;2023-06-24T10:01:47;23.70;99.90
16243;DHT22;11719;51.052;6.982;2023-06-24T10:04:17;23.80;99.90
16243;DHT22;11719;51.052;6.982;2023-06-24T10:06:44;23.80;99.90
16243;DHT22;11719;51.052;6.982;2023-06-24T10:09:10;23.90;99.90
16243;DHT22;11719;51.052;6.982;2023-06-24T10:11:39;24.00;99.90
16243;DHT22;11719;51.052;6.982;2023-06-24T10:14:05;24.10;99.90
16243;DHT22;11719;51.052;6.982;2023-06-24T10:16:31;23.90;99.90
16243;DHT22;11719;51.052;6.982;2023-06-24T10:19:01;23.90;99.90
16243;DHT22;11719;51.052;6.982;2023-06-24T10:21:51;23.80;99.90
16243;DHT22;11719;51.052;6.982;2023-06-24T10:24:35;24.00;99.90
16243;DHT22;11719;51.052;6.982;2023-06-24T10:27:07;24.10;99.90
16243;DHT22;11719;51.052;6.982;2023-06-24T10:29:35;24.10;99.90
16243;DHT22;11719;51.052;6.982;2023-06-24T10:32:07;24.20;99.90
16243;DHT22;11719;51.052;6.982;2023-06-24T10:34:41;24.20;99.90
16243;DHT22;11719;51.052;6.982;2023-06-24T10:37:11;24.10;99.90
16243;DHT22;11719;51.052;6.982;2023-06-24T10:40:00;24.10;99.90
16243;DHT22;11719;51.052;6.982;2023-06-24T10:42:41;24.30;99.90
16243;DHT22;11719;51.052;6.982;2023-06-24T10:45:13;24.30;99.90
16243;DHT22;11719;51.052;6.982;2023-06-24T10:47:44;24.30;99.90
16243;DHT22;11719;51.052;6.982;2023-06-24T10:50:12;24.30;99.90
16243;DHT22;11719;51.052;6.982;2023-06-24T10:52:44;24.40;99.90
16243;DHT22;11719;51.052;6.982;2023-06-24T10:55:14;24.40;99.90
16243;DHT22;11719;51.052;6.982;2023-06-24T10:57:41;24.30;99.90
16243;DHT22;11719;51.052;6.982;2023-06-24T11:00:07;24.40;99.90
16243;DHT22;11719;51.052;6.982;2023-06-24T11:02:33;24.40;99.90
16243;DHT22;11719;51.052;6.982;2023-06-24T11:05:02;24.50;99.90
16243;DHT22;11719;51.052;6.982;2023-06-24T11:07:31;24.50;99.90
16243;DHT22;11719;51.052;6.982;2023-06-24T11:10:06;24.40;99.90
16243;DHT22;11719;51.052;6.982;2023-06-24T11:12:34;24.40;99.90
16243;DHT22;11719;51.052;6.982;2023-06-24T11:15:05;24.60;98.90
16243;DHT22;11719;51.052;6.982;2023-06-24T11:17:33;24.80;99.90
16243;DHT22;11719;51.052;6.982;2023-06-24T11:20:00;24.80;99.90
16243;DHT22;11719;51.052;6.982;2023-06-24T11:22:27;24.70;99.90
16243;DHT22;11719;51.052;6.982;2023-06-24T11:24:54;24.70;99.90
16243;DHT22;11719;51.052;6.982;2023-06-24T11:27:29;24.60;99.90
16243;DHT22;11719;51.052;6.982;2023-06-24T11:29:58;24.70;99.90
16243;DHT22;11719;51.052;6.982;2023-06-24T11:32:35;24.70;99.90
16243;DHT22;11719;51.052;6.982;2023-06-24T11:35:03;24.80;98.00
16243;DHT22;11719;51.052;6.982;2023-06-24T11:37:33;24.80;99.90
16243;DHT22;11719;51.052;6.982;2023-06-24T11:40:04;24.90;98.80
16243;DHT22;11719;51.052;6.982;2023-06-24T11:42:32;24.80;97.70
16243;DHT22;11719;51.052;6.982;2023-06-24T11:45:03;24.70;98.20
16243;DHT22;11719;51.052;6.982;2023-06-24T11:47:34;24.70;99.20
16243;DHT22;11719;51.052;6.982;2023-06-24T11:50:01;24.60;99.60
16243;DHT22;11719;51.052;6.982;2023-06-24T12:00:31;24.60;99.50
16243;DHT22;11719;51.052;6.982;2023-06-24T12:03:08;24.70;95.40
16243;DHT22;11719;51.052;6.982;2023-06-24T12:05:37;24.60;99.90
16243;DHT22;11719;51.052;6.982;2023-06-24T12:08:09;24.60;99.90
16243;DHT22;11719;51.052;6.982;2023-06-24T12:10:37;24.30;99.90
16243;DHT22;11719;51.052;6.982;2023-06-24T12:13:05;24.20;99.90
16243;DHT22;11719;51.052;6.982;2023-06-24T12:15:34;24.10;99.90
16243;DHT22;11719;51.052;6.982;2023-06-24T12:18:01;24.10;99.90
16243;DHT22;11719;51.052;6.982;2023-06-24T12:20:28;24.10;99.90
16243;DHT22;11719;51.052;6.982;2023-06-24T12:22:54;24.40;99.90
16243;DHT22;11719;51.052;6.982;2023-06-24T12:25:20;24.40;99.90
16243;DHT22;11719;51.052;6.982;2023-06-24T12:27:47;24.60;99.90
16243;DHT22;11719;51.052;6.982;2023-06-24T12:30:13;24.60;99.90
16243;DHT22;11719;51.052;6.982;2023-06-24T12:32:39;24.50;99.90
16243;DHT22;11719;51.052;6.982;2023-06-24T12:35:06;24.70;99.40
16243;DHT22;11719;51.052;6.982;2023-06-24T12:37:34;25.00;99.90
16243;DHT22;11719;51.052;6.982;2023-06-24T12:40:01;24.90;99.90
16243;DHT22;11719;51.052;6.982;2023-06-24T12:42:30;25.00;99.20
16243;DHT22;11719;51.052;6.982;2023-06-24T12:44:56;25.40;99.10
16243;DHT22;11719;51.052;6.982;2023-06-24T12:47:22;25.70;97.60
16243;DHT22;11719;51.052;6.982;2023-06-24T12:49:48;25.80;98.80
16243;DHT22;11719;51.052;6.982;2023-06-24T12:52:15;25.90;99.60
16243;DHT22;11719;51.052;6.982;2023-06-24T12:54:41;25.80;99.80
16243;DHT22;11719;51.052;6.982;2023-06-24T12:57:07;25.70;99.60
16243;DHT22;11719;51.052;6.982;2023-06-24T12:59:33;25.60;99.90
16243;DHT22;11719;51.052;6.982;2023-06-24T13:01:58;25.70;99.90
16243;DHT22;11719;51.052;6.982;2023-06-24T13:04:24;25.70;98.20
16243;DHT22;11719;51.052;6.982;2023-06-24T13:06:51;25.90;98.30
16243;DHT22;11719;51.052;6.982;2023-06-24T13:09:17;26.00;98.40
16243;DHT22;11719;51.052;6.982;2023-06-24T13:11:43;26.00;99.30
16243;DHT22;11719;51.052;6.982;2023-06-24T13:14:09;26.10;97.70
16243;DHT22;11719;51.052;6.982;2023-06-24T13:16:36;26.00;96.90
16243;DHT22;11719;51.052;6.982;2023-06-24T13:19:02;26.00;98.00
16243;DHT22;11719;51.052;6.982;2023-06-24T13:21:28;26.00;96.10
16243;DHT22;11719;51.052;6.982;2023-06-24T13:23:54;26.00;97.00
16243;DHT22;11719;51.052;6.982;2023-06-24T13:26:20;25.90;97.30
16243;DHT22;11719;51.052;6.982;2023-06-24T13:28:46;25.90;98.10
16243;DHT22;11719;51.052;6.982;2023-06-24T13:31:11;25.90;96.10
16243;DHT22;11719;51.052;6.982;2023-06-24T13:33:38;25.90;96.40
16243;DHT22;11719;51.052;6.982;2023-06-24T13:36:05;25.80;98.10
16243;DHT22;11719;51.052;6.982;2023-06-24T13:38:32;25.70;97.90
16243;DHT22;11719;51.052;6.982;2023-06-24T13:40:58;25.50;97.90
16243;DHT22;11719;51.052;6.982;2023-06-24T13:43:24;25.50;96.60
16243;DHT22;11719;51.052;6.982;2023-06-24T13:45:51;25.40;96.50
16243;DHT22;11719;51.052;6.982;2023-06-24T13:48:17;25.40;97.50
16243;DHT22;11719;51.052;6.982;2023-06-24T13:50:43;25.40;96.80
16243;DHT22;11719;51.052;6.982;2023-06-24T13:53:08;25.40;97.80
16243;DHT22;11719;51.052;6.982;2023-06-24T13:55:34;25.30;96.70
16243;DHT22;11719;51.052;6.982;2023-06-24T13:58:02;25.40;94.80
16243;DHT22;11719;51.052;6.982;2023-06-24T14:00:27;25.70;95.50
16243;DHT22;11719;51.052;6.982;2023-06-24T14:02:53;25.70;93.70
16243;DHT22;11719;51.052;6.982;2023-06-24T14:05:20;25.60;95.40
16243;DHT22;11719;51.052;6.982;2023-06-24T14:07:46;25.50;94.90
16243;DHT22;11719;51.052;6.982;2023-06-24T14:10:12;25.50;96.90
16243;DHT22;11719;51.052;6.982;2023-06-24T14:12:38;25.60;97.40
16243;DHT22;11719;51.052;6.982;2023-06-24T14:15:04;25.40;97.00
16243;DHT22;11719;51.052;6.982;2023-06-24T14:17:30;25.40;97.90
16243;DHT22;11719;51.052;6.982;2023-06-24T14:19:56;25.20;97.70
16243;DHT22;11719;51.052;6.982;2023-06-24T14:22:22;25.00;97.10
16243;DHT22;11719;51.052;6.982;2023-06-24T14:24:49;25.20;97.70
16243;DHT22;11719;51.052;6.982;2023-06-24T14:27:15;25.20;97.20
16243;DHT22;11719;51.052;6.982;2023-06-24T14:29:41;25.20;93.80
16243;DHT22;11719;51.052;6.982;2023-06-24T14:32:07;25.40;94.70
16243;DHT22;11719;51.052;6.982;2023-06-24T14:34:33;25.30;96.90
16243;DHT22;11719;51.052;6.982;2023-06-24T14:36:59;25.40;95.10
16243;DHT22;11719;51.052;6.982;2023-06-24T14:39:24;25.30;97.10
16243;DHT22;11719;51.052;6.982;2023-06-24T14:41:50;25.20;93.40
16243;DHT22;11719;51.052;6.982;2023-06-24T14:44:16;25.20;92.60
16243;DHT22;11719;51.052;6.982;2023-06-24T14:46:42;25.30;93.70
16243;DHT22;11719;51.052;6.982;2023-06-24T14:49:07;25.20;93.90
16243;DHT22;11719;51.052;6.982;2023-06-24T14:51:33;25.10;95.80
16243;DHT22;11719;51.052;6.982;2023-06-24T14:53:59;25.00;94.70
16243;DHT22;11719;51.052;6.982;2023-06-24T14:56:25;25.00;97.50
16243;DHT22;11719;51.052;6.982;2023-06-24T14:58:51;24.80;97.60
16243;DHT22;11719;51.052;6.982;2023-06-24T15:01:17;24.60;98.50
16243;DHT22;11719;51.052;6.982;2023-06-24T15:03:43;24.60;98.60
16243;DHT22;11719;51.052;6.982;2023-06-24T15:06:08;24.50;98.50
16243;DHT22;11719;51.052;6.982;2023-06-24T15:08:34;24.50;98.80
16243;DHT22;11719;51.052;6.982;2023-06-24T15:11:00;24.40;99.10
16243;DHT22;11719;51.052;6.982;2023-06-24T15:13:26;24.60;98.50
16243;DHT22;11719;51.052;6.982;2023-06-24T15:15:51;24.60;96.30
16243;DHT22;11719;51.052;6.982;2023-06-24T15:18:21;24.60;96.20
16243;DHT22;11719;51.052;6.982;2023-06-24T15:20:47;24.60;98.60
16243;DHT22;11719;51.052;6.982;2023-06-24T15:23:13;24.50;97.80
16243;DHT22;11719;51.052;6.982;2023-06-24T15:25:38;24.60;95.10
16243;DHT22;11719;51.052;6.982;2023-06-24T15:28:04;24.60;98.20
16243;DHT22;11719;51.052;6.982;2023-06-24T15:30:30;24.80;89.70
16243;DHT22;11719;51.052;6.982;2023-06-24T15:32:56;24.80;98.20
16243;DHT22;11719;51.052;6.982;2023-06-24T15:35:22;24.50;98.00
16243;DHT22;11719;51.052;6.982;2023-06-24T15:37:47;24.30;99.00
16243;DHT22;11719;51.052;6.982;2023-06-24T15:40:13;24.20;99.90
16243;DHT22;11719;51.052;6.982;2023-06-24T15:42:39;24.40;96.30
16243;DHT22;11719;51.052;6.982;2023-06-24T15:45:05;24.70;95.10
16243;DHT22;11719;51.052;6.982;2023-06-24T15:47:31;24.80;98.40
16243;DHT22;11719;51.052;6.982;2023-06-24T15:49:57;24.70;94.90
16243;DHT22;11719;51.052;6.982;2023-06-24T15:52:23;24.50;98.20
16243;DHT22;11719;51.052;6.982;2023-06-24T15:54:49;24.40;96.60
16243;DHT22;11719;51.052;6.982;2023-06-24T15:57:14;24.30;99.90
16243;DHT22;11719;51.052;6.982;2023-06-24T15:59:40;24.00;99.90